sensor_id;sensor_type;location;lat;lon;timestamp;temperature;humidity
63289;DHT22;49412;48.162;-1.978;2022-12-18T00:00:25;-1.50;99.90
63289;DHT22;49412;48.162;-1.978;2022-12-18T00:02:51;-1.50;99.90
63289;DHT22;49412;48.162;-1.978;2022-12-18T00:05:16;-1.50;99.90
63289;DHT22;49412;48.162;-1.978;2022-12-18T00:07:42;-1.50;99.90
63289;DHT22;49412;48.162;-1.978;2022-12-18T00:10:08;-1.50;99.90
63289;DHT22;49412;48.162;-1.978;2022-12-18T00:12:33;-1.40;99.90
63289;DHT22;49412;48.162;-1.978;2022-12-18T00:14:59;-1.40;99.90
63289;DHT22;49412;48.162;-1.978;2022-12-18T00:17:25;-1.40;99.90
63289;DHT22;49412;48.162;-1.978;2022-12-18T00:19:50;-1.30;99.90
63289;DHT22;49412;48.162;-1.978;2022-12-18T00:22:16;-1.40;99.90
63289;DHT22;49412;48.162;-1.978;2022-12-18T00:24:41;-1.30;99.90
63289;DHT22;49412;48.162;-1.978;2022-12-18T00:27:07;-1.30;99.90
63289;DHT22;49412;48.162;-1.978;2022-12-18T00:29:32;-1.30;99.90
63289;DHT22;49412;48.162;-1.978;2022-12-18T00:31:58;-1.20;99.90
63289;DHT22;49412;48.162;-1.978;2022-12-18T00:34:24;-1.20;99.90
63289;DHT22;49412;48.162;-1.978;2022-12-18T00:36:49;-1.20;99.90
63289;DHT22;49412;48.162;-1.978;2022-12-18T00:39:15;-1.20;99.90
63289;DHT22;49412;48.162;-1.978;2022-12-18T00:41:40;-1.20;99.90
63289;DHT22;49412;48.162;-1.978;2022-12-18T00:44:24;-1.20;99.90
63289;DHT22;49412;48.162;-1.978;2022-12-18T00:46:50;-1.20;99.90
63289;DHT22;49412;48.162;-1.978;2022-12-18T00:49:16;-1.20;99.90
63289;DHT22;49412;48.162;-1.978;2022-12-18T00:51:42;-1.20;99.90
63289;DHT22;49412;48.162;-1.978;2022-12-18T00:54:08;-1.20;99.90
63289;DHT22;49412;48.162;-1.978;2022-12-18T00:56:37;-1.10;99.90
63289;DHT22;49412;48.162;-1.978;2022-12-18T00:59:03;-1.20;99.90
63289;DHT22;49412;48.162;-1.978;2022-12-18T01:01:29;-1.10;99.90
63289;DHT22;49412;48.162;-1.978;2022-12-18T01:03:55;-1.10;99.90
63289;DHT22;49412;48.162;-1.978;2022-12-18T01:06:20;-1.20;99.90
63289;DHT22;49412;48.162;-1.978;2022-12-18T01:08:46;-1.20;99.90
63289;DHT22;49412;48.162;-1.978;2022-12-18T01:11:13;-1.20;99.90
63289;DHT22;49412;48.162;-1.978;2022-12-18T01:13:39;-1.20;99.90
63289;DHT22;49412;48.162;-1.978;2022-12-18T01:16:04;-1.20;99.90
63289;DHT22;49412;48.162;-1.978;2022-12-18T01:18:30;-1.30;99.90
63289;DHT22;49412;48.162;-1.978;2022-12-18T01:20:56;-1.20;99.90
63289;DHT22;49412;48.162;-1.978;2022-12-18T01:23:21;-1.20;99.90
63289;DHT22;49412;48.162;-1.978;2022-12-18T01:25:47;-1.30;99.90
63289;DHT22;49412;48.162;-1.978;2022-12-18T01:28:12;-1.30;99.90
63289;DHT22;49412;48.162;-1.978;2022-12-18T01:30:38;-1.30;99.90
63289;DHT22;49412;48.162;-1.978;2022-12-18T01:33:04;-1.30;99.90
63289;DHT22;49412;48.162;-1.978;2022-12-18T01:35:30;-1.30;99.90
63289;DHT22;49412;48.162;-1.978;2022-12-18T01:37:55;-1.30;99.90
63289;DHT22;49412;48.162;-1.978;2022-12-18T01:40:21;-1.40;99.90
63289;DHT22;49412;48.162;-1.978;2022-12-18T01:42:52;-1.30;99.90
63289;DHT22;49412;48.162;-1.978;2022-12-18T01:47:47;-1.30;99.90
63289;DHT22;49412;48.162;-1.978;2022-12-18T01:50:14;-1.30;99.90
63289;DHT22;49412;48.162;-1.978;2022-12-18T01:52:41;-1.30;99.90
63289;DHT22;49412;48.162;-1.978;2022-12-18T01:55:07;-1.20;99.90
63289;DHT22;49412;48.162;-1.978;2022-12-18T01:57:33;-1.20;99.90
63289;DHT22;49412;48.162;-1.978;2022-12-18T02:00:00;-1.10;99.90
63289;DHT22;49412;48.162;-1.978;2022-12-18T02:02:27;-1.10;99.90
63289;DHT22;49412;48.162;-1.978;2022-12-18T02:04:54;-1.10;99.90
63289;DHT22;49412;48.162;-1.978;2022-12-18T02:07:24;-1.10;99.90
63289;DHT22;49412;48.162;-1.978;2022-12-18T02:12:54;-1.10;99.90
63289;DHT22;49412;48.162;-1.978;2022-12-18T02:17:54;-1.20;99.90
63289;DHT22;49412;48.162;-1.978;2022-12-18T02:22:59;-1.20;99.90
63289;DHT22;49412;48.162;-1.978;2022-12-18T02:28:11;-1.10;99.90
63289;DHT22;49412;48.162;-1.978;2022-12-18T02:30:38;-1.10;99.90
63289;DHT22;49412;48.162;-1.978;2022-12-18T02:33:06;-1.10;99.90
63289;DHT22;49412;48.162;-1.978;2022-12-18T02:35:32;-1.10;99.90
63289;DHT22;49412;48.162;-1.978;2022-12-18T02:37:58;-1.10;99.90
63289;DHT22;49412;48.162;-1.978;2022-12-18T02:40:26;-1.10;99.90
63289;DHT22;49412;48.162;-1.978;2022-12-18T02:42:52;-1.10;99.90
63289;DHT22;49412;48.162;-1.978;2022-12-18T02:45:18;-1.10;99.90
63289;DHT22;49412;48.162;-1.978;2022-12-18T02:47:45;-1.00;99.90
63289;DHT22;49412;48.162;-1.978;2022-12-18T03:00:41;-0.90;99.90
63289;DHT22;49412;48.162;-1.978;2022-12-18T03:03:16;-0.80;99.90
63289;DHT22;49412;48.162;-1.978;2022-12-18T03:06:20;-0.80;99.90
63289;DHT22;49412;48.162;-1.978;2022-12-18T03:08:38;-0.70;99.90
63289;DHT22;49412;48.162;-1.978;2022-12-18T03:11:11;-0.70;99.90
63289;DHT22;49412;48.162;-1.978;2022-12-18T03:16:06;-0.60;99.90
63289;DHT22;49412;48.162;-1.978;2022-12-18T03:18:37;-0.60;99.90
63289;DHT22;49412;48.162;-1.978;2022-12-18T03:21:05;-0.50;99.90
63289;DHT22;49412;48.162;-1.978;2022-12-18T03:23:33;-0.50;99.90
63289;DHT22;49412;48.162;-1.978;2022-12-18T03:26:01;-0.50;99.90
63289;DHT22;49412;48.162;-1.978;2022-12-18T03:28:30;-0.40;99.90
63289;DHT22;49412;48.162;-1.978;2022-12-18T03:30:57;-0.30;99.90
63289;DHT22;49412;48.162;-1.978;2022-12-18T03:33:25;-0.30;99.90
63289;DHT22;49412;48.162;-1.978;2022-12-18T03:35:52;-0.30;99.90
63289;DHT22;49412;48.162;-1.978;2022-12-18T03:38:18;-0.20;99.90
63289;DHT22;49412;48.162;-1.978;2022-12-18T03:45:54;-0.50;99.90
63289;DHT22;49412;48.162;-1.978;2022-12-18T03:48:26;-0.50;99.90
63289;DHT22;49412;48.162;-1.978;2022-12-18T03:51:01;-0.50;99.90
63289;DHT22;49412;48.162;-1.978;2022-12-18T03:55:59;-0.50;99.90
63289;DHT22;49412;48.162;-1.978;2022-12-18T03:58:25;-0.60;99.90
63289;DHT22;49412;48.162;-1.978;2022-12-18T04:00:52;-0.50;99.90
63289;DHT22;49412;48.162;-1.978;2022-12-18T04:03:19;-0.50;99.90
63289;DHT22;49412;48.162;-1.978;2022-12-18T04:05:45;-0.60;99.90
63289;DHT22;49412;48.162;-1.978;2022-12-18T04:08:12;-0.50;99.90
63289;DHT22;49412;48.162;-1.978;2022-12-18T04:10:37;-0.50;99.90
63289;DHT22;49412;48.162;-1.978;2022-12-18T04:13:03;-0.50;99.90
63289;DHT22;49412;48.162;-1.978;2022-12-18T04:15:28;-0.50;99.90
63289;DHT22;49412;48.162;-1.978;2022-12-18T04:17:54;-0.50;99.90
63289;DHT22;49412;48.162;-1.978;2022-12-18T04:20:20;-0.40;99.90
63289;DHT22;49412;48.162;-1.978;2022-12-18T04:22:45;-0.40;99.90
63289;DHT22;49412;48.162;-1.978;2022-12-18T04:25:11;-0.40;99.90
63289;DHT22;49412;48.162;-1.978;2022-12-18T04:27:37;-0.40;99.90
63289;DHT22;49412;48.162;-1.978;2022-12-18T04:30:03;-0.40;99.90
63289;DHT22;49412;48.162;-1.978;2022-12-18T04:32:28;-0.40;99.90
63289;DHT22;49412;48.162;-1.978;2022-12-18T04:34:54;-0.50;99.90
63289;DHT22;49412;48.162;-1.978;2022-12-18T04:37:20;-0.40;99.90
63289;DHT22;49412;48.162;-1.978;2022-12-18T04:39:45;-0.40;99.90
63289;DHT22;49412;48.162;-1.978;2022-12-18T04:42:11;-0.40;99.90
63289;DHT22;49412;48.162;-1.978;2022-12-18T04:44:37;-0.30;99.90
63289;DHT22;49412;48.162;-1.978;2022-12-18T04:47:02;-0.40;99.90
63289;DHT22;49412;48.162;-1.978;2022-12-18T04:49:28;-0.40;99.90
63289;DHT22;49412;48.162;-1.978;2022-12-18T04:51:53;-0.30;99.90
63289;DHT22;49412;48.162;-1.978;2022-12-18T04:54:19;-0.30;99.90
63289;DHT22;49412;48.162;-1.978;2022-12-18T04:56:44;-0.20;99.90
63289;DHT22;49412;48.162;-1.978;2022-12-18T04:59:10;-0.20;99.90
63289;DHT22;49412;48.162;-1.978;2022-12-18T05:01:36;-0.20;99.90
63289;DHT22;49412;48.162;-1.978;2022-12-18T05:04:02;-0.20;99.90
63289;DHT22;49412;48.162;-1.978;2022-12-18T05:06:27;-0.10;99.90
63289;DHT22;49412;48.162;-1.978;2022-12-18T05:08:53;-0.10;99.90
63289;DHT22;49412;48.162;-1.978;2022-12-18T05:11:19;-0.10;99.90
63289;DHT22;49412;48.162;-1.978;2022-12-18T05:13:44;-0.10;99.90
63289;DHT22;49412;48.162;-1.978;2022-12-18T05:16:10;-0.10;99.90
63289;DHT22;49412;48.162;-1.978;2022-12-18T05:18:36;0.00;99.90
63289;DHT22;49412;48.162;-1.978;2022-12-18T05:21:01;0.00;99.90
63289;DHT22;49412;48.162;-1.978;2022-12-18T05:23:27;0.00;99.90
63289;DHT22;49412;48.162;-1.978;2022-12-18T05:25:53;0.00;99.90
63289;DHT22;49412;48.162;-1.978;2022-12-18T05:28:19;0.10;99.90
63289;DHT22;49412;48.162;-1.978;2022-12-18T05:30:49;0.10;99.90
63289;DHT22;49412;48.162;-1.978;2022-12-18T05:33:15;0.00;99.90
63289;DHT22;49412;48.162;-1.978;2022-12-18T05:35:40;0.00;99.90
63289;DHT22;49412;48.162;-1.978;2022-12-18T05:38:06;0.00;99.90
63289;DHT22;49412;48.162;-1.978;2022-12-18T05:40:31;0.00;99.90
63289;DHT22;49412;48.162;-1.978;2022-12-18T05:42:57;0.10;99.90
63289;DHT22;49412;48.162;-1.978;2022-12-18T05:45:22;0.10;99.90
63289;DHT22;49412;48.162;-1.978;2022-12-18T05:47:48;0.00;99.90
63289;DHT22;49412;48.162;-1.978;2022-12-18T05:50:14;0.00;99.90
63289;DHT22;49412;48.162;-1.978;2022-12-18T05:52:39;0.10;99.90
63289;DHT22;49412;48.162;-1.978;2022-12-18T05:55:05;0.00;99.90
63289;DHT22;49412;48.162;-1.978;2022-12-18T05:57:30;0.10;99.90
63289;DHT22;49412;48.162;-1.978;2022-12-18T05:59:56;0.10;99.90
63289;DHT22;49412;48.162;-1.978;2022-12-18T06:02:22;0.10;99.90
63289;DHT22;49412;48.162;-1.978;2022-12-18T06:04:47;0.10;99.90
63289;DHT22;49412;48.162;-1.978;2022-12-18T06:07:13;0.10;99.90
63289;DHT22;49412;48.162;-1.978;2022-12-18T06:09:38;0.10;99.90
63289;DHT22;49412;48.162;-1.978;2022-12-18T06:12:04;0.20;99.90
63289;DHT22;49412;48.162;-1.978;2022-12-18T06:14:30;0.20;99.90
63289;DHT22;49412;48.162;-1.978;2022-12-18T06:16:55;0.20;99.90
63289;DHT22;49412;48.162;-1.978;2022-12-18T06:19:21;0.20;99.90
63289;DHT22;49412;48.162;-1.978;2022-12-18T06:21:46;0.30;99.90
63289;DHT22;49412;48.162;-1.978;2022-12-18T06:24:12;0.30;99.90
63289;DHT22;49412;48.162;-1.978;2022-12-18T06:26:38;0.30;99.90
63289;DHT22;49412;48.162;-1.978;2022-12-18T06:29:04;0.40;99.90
63289;DHT22;49412;48.162;-1.978;2022-12-18T06:31:29;0.30;99.90
63289;DHT22;49412;48.162;-1.978;2022-12-18T06:33:55;0.40;99.90
63289;DHT22;49412;48.162;-1.978;2022-12-18T06:36:20;0.40;99.90
63289;DHT22;49412;48.162;-1.978;2022-12-18T06:38:46;0.40;99.90
63289;DHT22;49412;48.162;-1.978;2022-12-18T06:41:13;0.40;99.90
63289;DHT22;49412;48.162;-1.978;2022-12-18T06:43:39;0.50;99.90
63289;DHT22;49412;48.162;-1.978;2022-12-18T06:46:05;0.50;99.90
63289;DHT22;49412;48.162;-1.978;2022-12-18T06:48:31;0.50;99.90
63289;DHT22;49412;48.162;-1.978;2022-12-18T06:50:57;0.50;99.90
63289;DHT22;49412;48.162;-1.978;2022-12-18T06:53:22;0.50;99.90
63289;DHT22;49412;48.162;-1.978;2022-12-18T06:55:48;0.50;99.90
63289;DHT22;49412;48.162;-1.978;2022-12-18T06:58:13;0.50;99.90
63289;DHT22;49412;48.162;-1.978;2022-12-18T07:00:39;0.50;99.90
63289;DHT22;49412;48.162;-1.978;2022-12-18T07:03:04;0.40;99.90
63289;DHT22;49412;48.162;-1.978;2022-12-18T07:05:30;0.40;99.90
63289;DHT22;49412;48.162;-1.978;2022-12-18T07:07:56;0.40;99.90
63289;DHT22;49412;48.162;-1.978;2022-12-18T07:10:21;0.40;99.90
63289;DHT22;49412;48.162;-1.978;2022-12-18T07:12:47;0.40;99.90
63289;DHT22;49412;48.162;-1.978;2022-12-18T07:15:13;0.40;99.90
63289;DHT22;49412;48.162;-1.978;2022-12-18T07:17:38;0.40;99.90
63289;DHT22;49412;48.162;-1.978;2022-12-18T07:20:04;0.40;99.90
63289;DHT22;49412;48.162;-1.978;2022-12-18T07:22:30;0.40;99.90
63289;DHT22;49412;48.162;-1.978;2022-12-18T07:24:55;0.40;99.90
63289;DHT22;49412;48.162;-1.978;2022-12-18T07:27:21;0.40;99.90
63289;DHT22;49412;48.162;-1.978;2022-12-18T07:29:47;0.40;1.00
63289;DHT22;49412;48.162;-1.978;2022-12-18T07:32:13;0.40;1.00
63289;DHT22;49412;48.162;-1.978;2022-12-18T07:34:38;0.50;1.00
63289;DHT22;49412;48.162;-1.978;2022-12-18T07:37:04;0.50;1.00
63289;DHT22;49412;48.162;-1.978;2022-12-18T07:39:30;0.50;1.00
63289;DHT22;49412;48.162;-1.978;2022-12-18T07:41:55;0.50;1.00
63289;DHT22;49412;48.162;-1.978;2022-12-18T07:44:39;0.50;1.00
63289;DHT22;49412;48.162;-1.978;2022-12-18T07:47:05;0.50;1.00
63289;DHT22;49412;48.162;-1.978;2022-12-18T07:49:31;0.60;5.20
63289;DHT22;49412;48.162;-1.978;2022-12-18T07:51:56;0.60;62.00
63289;DHT22;49412;48.162;-1.978;2022-12-18T07:54:23;0.60;98.60
63289;DHT22;49412;48.162;-1.978;2022-12-18T07:56:48;0.60;99.90
63289;DHT22;49412;48.162;-1.978;2022-12-18T07:59:14;0.60;99.90
63289;DHT22;49412;48.162;-1.978;2022-12-18T08:01:39;0.70;99.90
63289;DHT22;49412;48.162;-1.978;2022-12-18T08:04:05;0.70;99.90
63289;DHT22;49412;48.162;-1.978;2022-12-18T08:06:31;0.70;99.90
63289;DHT22;49412;48.162;-1.978;2022-12-18T08:08:56;0.80;99.90
63289;DHT22;49412;48.162;-1.978;2022-12-18T08:11:22;0.80;99.90
63289;DHT22;49412;48.162;-1.978;2022-12-18T08:13:48;0.80;99.90
63289;DHT22;49412;48.162;-1.978;2022-12-18T08:16:14;0.90;99.90
63289;DHT22;49412;48.162;-1.978;2022-12-18T08:18:40;0.90;99.90
63289;DHT22;49412;48.162;-1.978;2022-12-18T08:21:09;0.90;1.00
63289;DHT22;49412;48.162;-1.978;2022-12-18T08:23:35;0.90;1.00
63289;DHT22;49412;48.162;-1.978;2022-12-18T08:26:01;0.90;1.00
63289;DHT22;49412;48.162;-1.978;2022-12-18T08:28:26;1.00;1.00
63289;DHT22;49412;48.162;-1.978;2022-12-18T08:30:52;1.00;1.00
63289;DHT22;49412;48.162;-1.978;2022-12-18T08:33:18;1.00;1.00
63289;DHT22;49412;48.162;-1.978;2022-12-18T08:35:43;1.00;1.00
63289;DHT22;49412;48.162;-1.978;2022-12-18T08:38:09;1.10;1.00
63289;DHT22;49412;48.162;-1.978;2022-12-18T08:40:34;1.10;1.00
63289;DHT22;49412;48.162;-1.978;2022-12-18T08:43:00;1.10;1.00
63289;DHT22;49412;48.162;-1.978;2022-12-18T08:45:44;1.10;1.00
63289;DHT22;49412;48.162;-1.978;2022-12-18T08:48:10;1.20;1.00
63289;DHT22;49412;48.162;-1.978;2022-12-18T08:50:35;1.20;10.00
63289;DHT22;49412;48.162;-1.978;2022-12-18T08:53:01;1.20;9.60
63289;DHT22;49412;48.162;-1.978;2022-12-18T08:55:27;1.30;21.90
63289;DHT22;49412;48.162;-1.978;2022-12-18T08:57:52;1.30;32.70
63289;DHT22;49412;48.162;-1.978;2022-12-18T09:00:18;1.30;50.60
63289;DHT22;49412;48.162;-1.978;2022-12-18T09:02:44;1.30;62.90
63289;DHT22;49412;48.162;-1.978;2022-12-18T09:05:09;1.40;74.40
63289;DHT22;49412;48.162;-1.978;2022-12-18T09:07:35;1.40;94.80
63289;DHT22;49412;48.162;-1.978;2022-12-18T09:10:01;1.40;99.90
63289;DHT22;49412;48.162;-1.978;2022-12-18T09:12:27;1.40;99.90
63289;DHT22;49412;48.162;-1.978;2022-12-18T09:14:53;1.40;99.90
63289;DHT22;49412;48.162;-1.978;2022-12-18T09:17:18;1.40;99.90
63289;DHT22;49412;48.162;-1.978;2022-12-18T09:19:44;1.40;99.90
63289;DHT22;49412;48.162;-1.978;2022-12-18T09:22:09;1.50;99.90
63289;DHT22;49412;48.162;-1.978;2022-12-18T09:24:35;1.50;99.90
63289;DHT22;49412;48.162;-1.978;2022-12-18T09:27:01;1.50;99.90
63289;DHT22;49412;48.162;-1.978;2022-12-18T09:29:26;1.50;99.90
63289;DHT22;49412;48.162;-1.978;2022-12-18T09:31:52;1.50;99.90
63289;DHT22;49412;48.162;-1.978;2022-12-18T09:34:17;1.50;99.90
63289;DHT22;49412;48.162;-1.978;2022-12-18T09:36:46;1.60;99.90
63289;DHT22;49412;48.162;-1.978;2022-12-18T09:39:12;1.60;99.90
63289;DHT22;49412;48.162;-1.978;2022-12-18T09:41:41;1.60;99.90
63289;DHT22;49412;48.162;-1.978;2022-12-18T09:46:38;1.60;99.90
63289;DHT22;49412;48.162;-1.978;2022-12-18T09:49:06;1.70;99.90
63289;DHT22;49412;48.162;-1.978;2022-12-18T09:51:46;1.70;99.90
63289;DHT22;49412;48.162;-1.978;2022-12-18T09:54:14;1.80;99.90
63289;DHT22;49412;48.162;-1.978;2022-12-18T09:56:42;1.80;99.90
63289;DHT22;49412;48.162;-1.978;2022-12-18T09:59:14;1.80;99.90
63289;DHT22;49412;48.162;-1.978;2022-12-18T10:01:43;1.80;99.90
63289;DHT22;49412;48.162;-1.978;2022-12-18T10:04:08;1.80;99.90
63289;DHT22;49412;48.162;-1.978;2022-12-18T10:06:39;1.90;99.90
63289;DHT22;49412;48.162;-1.978;2022-12-18T10:11:54;1.90;99.90
63289;DHT22;49412;48.162;-1.978;2022-12-18T10:26:41;2.20;99.90
63289;DHT22;49412;48.162;-1.978;2022-12-18T10:29:11;2.20;99.90
63289;DHT22;49412;48.162;-1.978;2022-12-18T10:31:37;2.20;99.90
63289;DHT22;49412;48.162;-1.978;2022-12-18T10:34:03;2.20;99.90
63289;DHT22;49412;48.162;-1.978;2022-12-18T10:36:28;2.30;99.90
63289;DHT22;49412;48.162;-1.978;2022-12-18T10:38:57;2.30;99.90
63289;DHT22;49412;48.162;-1.978;2022-12-18T10:41:38;2.30;99.90
63289;DHT22;49412;48.162;-1.978;2022-12-18T10:46:36;2.40;99.90
63289;DHT22;49412;48.162;-1.978;2022-12-18T10:49:01;2.50;99.90
63289;DHT22;49412;48.162;-1.978;2022-12-18T10:51:28;2.50;99.90
63289;DHT22;49412;48.162;-1.978;2022-12-18T10:56:27;2.60;99.90
63289;DHT22;49412;48.162;-1.978;2022-12-18T10:58:57;2.60;99.90
63289;DHT22;49412;48.162;-1.978;2022-12-18T11:01:23;2.70;99.90
63289;DHT22;49412;48.162;-1.978;2022-12-18T11:06:18;2.80;99.90
63289;DHT22;49412;48.162;-1.978;2022-12-18T11:11:24;2.80;99.90
63289;DHT22;49412;48.162;-1.978;2022-12-18T11:16:22;2.90;99.90
63289;DHT22;49412;48.162;-1.978;2022-12-18T11:18:49;2.90;99.90
63289;DHT22;49412;48.162;-1.978;2022-12-18T11:21:14;2.90;99.90
63289;DHT22;49412;48.162;-1.978;2022-12-18T11:23:47;3.00;99.90
63289;DHT22;49412;48.162;-1.978;2022-12-18T11:26:14;3.10;99.90
63289;DHT22;49412;48.162;-1.978;2022-12-18T11:28:41;3.20;99.90
63289;DHT22;49412;48.162;-1.978;2022-12-18T11:33:34;3.30;99.90
63289;DHT22;49412;48.162;-1.978;2022-12-18T11:36:01;3.30;99.90
63289;DHT22;49412;48.162;-1.978;2022-12-18T11:38:31;3.30;99.90
63289;DHT22;49412;48.162;-1.978;2022-12-18T11:43:27;3.30;99.90
63289;DHT22;49412;48.162;-1.978;2022-12-18T11:45:56;3.30;99.90
63289;DHT22;49412;48.162;-1.978;2022-12-18T11:48:29;3.40;99.90
63289;DHT22;49412;48.162;-1.978;2022-12-18T11:50:56;3.40;99.90
63289;DHT22;49412;48.162;-1.978;2022-12-18T11:53:22;3.40;99.90
63289;DHT22;49412;48.162;-1.978;2022-12-18T11:55:51;3.40;99.90
63289;DHT22;49412;48.162;-1.978;2022-12-18T12:01:50;3.50;99.90
63289;DHT22;49412;48.162;-1.978;2022-12-18T12:09:20;3.60;99.90
63289;DHT22;49412;48.162;-1.978;2022-12-18T12:11:52;3.60;99.90
63289;DHT22;49412;48.162;-1.978;2022-12-18T12:22:20;3.80;99.90
63289;DHT22;49412;48.162;-1.978;2022-12-18T12:40:11;4.10;99.90
63289;DHT22;49412;48.162;-1.978;2022-12-18T12:45:29;4.20;99.90
63289;DHT22;49412;48.162;-1.978;2022-12-18T12:47:58;4.30;99.90
63289;DHT22;49412;48.162;-1.978;2022-12-18T12:50:24;4.50;99.90
63289;DHT22;49412;48.162;-1.978;2022-12-18T12:52:52;4.60;99.90
63289;DHT22;49412;48.162;-1.978;2022-12-18T12:55:19;4.70;99.90
63289;DHT22;49412;48.162;-1.978;2022-12-18T12:58:10;4.80;99.90
63289;DHT22;49412;48.162;-1.978;2022-12-18T13:00:39;4.90;99.90
63289;DHT22;49412;48.162;-1.978;2022-12-18T13:03:19;4.90;99.90
63289;DHT22;49412;48.162;-1.978;2022-12-18T13:05:51;5.00;99.90
63289;DHT22;49412;48.162;-1.978;2022-12-18T13:08:26;5.10;99.90
63289;DHT22;49412;48.162;-1.978;2022-12-18T13:10:53;5.30;99.90
63289;DHT22;49412;48.162;-1.978;2022-12-18T13:13:49;5.40;99.90
63289;DHT22;49412;48.162;-1.978;2022-12-18T13:16:16;5.40;99.90
63289;DHT22;49412;48.162;-1.978;2022-12-18T13:18:53;5.40;99.90
63289;DHT22;49412;48.162;-1.978;2022-12-18T13:21:27;5.50;99.90
63289;DHT22;49412;48.162;-1.978;2022-12-18T13:23:53;5.40;99.90
63289;DHT22;49412;48.162;-1.978;2022-12-18T13:31:11;5.40;99.90
63289;DHT22;49412;48.162;-1.978;2022-12-18T13:33:38;5.30;99.90
63289;DHT22;49412;48.162;-1.978;2022-12-18T13:38:39;5.40;99.90
63289;DHT22;49412;48.162;-1.978;2022-12-18T13:43:45;5.40;99.90
63289;DHT22;49412;48.162;-1.978;2022-12-18T13:46:30;5.40;99.90
63289;DHT22;49412;48.162;-1.978;2022-12-18T13:51:21;5.30;99.90
63289;DHT22;49412;48.162;-1.978;2022-12-18T13:53:48;5.30;99.90
63289;DHT22;49412;48.162;-1.978;2022-12-18T13:56:15;5.30;99.90
63289;DHT22;49412;48.162;-1.978;2022-12-18T13:58:41;5.30;99.90
63289;DHT22;49412;48.162;-1.978;2022-12-18T14:01:20;5.20;99.90
63289;DHT22;49412;48.162;-1.978;2022-12-18T14:03:46;5.20;99.90
63289;DHT22;49412;48.162;-1.978;2022-12-18T14:06:12;5.20;99.90
63289;DHT22;49412;48.162;-1.978;2022-12-18T14:08:39;5.20;99.90
63289;DHT22;49412;48.162;-1.978;2022-12-18T14:11:05;5.20;99.90
63289;DHT22;49412;48.162;-1.978;2022-12-18T14:13:35;5.30;99.90
63289;DHT22;49412;48.162;-1.978;2022-12-18T14:16:01;5.30;99.90
63289;DHT22;49412;48.162;-1.978;2022-12-18T14:18:44;5.40;99.90
63289;DHT22;49412;48.162;-1.978;2022-12-18T14:21:17;5.40;99.90
63289;DHT22;49412;48.162;-1.978;2022-12-18T14:23:43;5.50;99.90
63289;DHT22;49412;48.162;-1.978;2022-12-18T14:26:26;5.60;99.90
63289;DHT22;49412;48.162;-1.978;2022-12-18T14:28:57;5.70;99.90
63289;DHT22;49412;48.162;-1.978;2022-12-18T14:31:27;5.70;99.90
63289;DHT22;49412;48.162;-1.978;2022-12-18T14:33:53;5.70;99.90
63289;DHT22;49412;48.162;-1.978;2022-12-18T14:36:20;5.70;99.90
63289;DHT22;49412;48.162;-1.978;2022-12-18T14:38:55;5.70;99.90
63289;DHT22;49412;48.162;-1.978;2022-12-18T14:41:21;5.70;99.90
63289;DHT22;49412;48.162;-1.978;2022-12-18T14:43:48;5.70;99.90
63289;DHT22;49412;48.162;-1.978;2022-12-18T14:48:55;5.80;99.90
63289;DHT22;49412;48.162;-1.978;2022-12-18T14:51:22;5.80;99.90
63289;DHT22;49412;48.162;-1.978;2022-12-18T14:56:20;5.80;99.90
63289;DHT22;49412;48.162;-1.978;2022-12-18T15:01:22;5.90;99.90
63289;DHT22;49412;48.162;-1.978;2022-12-18T15:03:48;5.90;99.90
63289;DHT22;49412;48.162;-1.978;2022-12-18T15:06:17;5.90;99.90
63289;DHT22;49412;48.162;-1.978;2022-12-18T15:08:43;5.90;99.90
63289;DHT22;49412;48.162;-1.978;2022-12-18T15:13:53;5.90;99.90
63289;DHT22;49412;48.162;-1.978;2022-12-18T15:16:19;5.90;99.90
63289;DHT22;49412;48.162;-1.978;2022-12-18T15:18:44;5.90;99.90
63289;DHT22;49412;48.162;-1.978;2022-12-18T15:21:11;6.00;99.90
63289;DHT22;49412;48.162;-1.978;2022-12-18T15:26:11;6.00;99.90
63289;DHT22;49412;48.162;-1.978;2022-12-18T15:28:54;6.10;99.90
63289;DHT22;49412;48.162;-1.978;2022-12-18T15:31:39;6.10;99.90
63289;DHT22;49412;48.162;-1.978;2022-12-18T15:36:31;6.20;99.90
63289;DHT22;49412;48.162;-1.978;2022-12-18T15:38:56;6.20;99.90
63289;DHT22;49412;48.162;-1.978;2022-12-18T15:41:25;6.20;99.90
63289;DHT22;49412;48.162;-1.978;2022-12-18T15:43:51;6.30;99.90
63289;DHT22;49412;48.162;-1.978;2022-12-18T15:46:20;6.40;99.90
63289;DHT22;49412;48.162;-1.978;2022-12-18T15:48:47;6.40;99.90
63289;DHT22;49412;48.162;-1.978;2022-12-18T15:51:20;6.50;99.90
63289;DHT22;49412;48.162;-1.978;2022-12-18T15:53:50;6.60;99.90
63289;DHT22;49412;48.162;-1.978;2022-12-18T15:56:16;6.60;99.90
63289;DHT22;49412;48.162;-1.978;2022-12-18T15:59:01;6.70;99.90
63289;DHT22;49412;48.162;-1.978;2022-12-18T16:01:28;6.70;99.90
63289;DHT22;49412;48.162;-1.978;2022-12-18T16:03:54;6.70;99.90
63289;DHT22;49412;48.162;-1.978;2022-12-18T16:06:20;6.80;99.90
63289;DHT22;49412;48.162;-1.978;2022-12-18T16:08:45;6.90;99.90
63289;DHT22;49412;48.162;-1.978;2022-12-18T16:11:16;6.90;99.90
63289;DHT22;49412;48.162;-1.978;2022-12-18T16:13:45;7.00;99.90
63289;DHT22;49412;48.162;-1.978;2022-12-18T16:16:11;7.00;99.90
63289;DHT22;49412;48.162;-1.978;2022-12-18T16:18:36;7.00;99.90
63289;DHT22;49412;48.162;-1.978;2022-12-18T16:21:02;7.10;99.90
63289;DHT22;49412;48.162;-1.978;2022-12-18T16:23:28;7.10;99.90
63289;DHT22;49412;48.162;-1.978;2022-12-18T16:25:53;7.10;99.90
63289;DHT22;49412;48.162;-1.978;2022-12-18T16:28:19;7.20;99.90
63289;DHT22;49412;48.162;-1.978;2022-12-18T16:30:44;7.20;99.90
63289;DHT22;49412;48.162;-1.978;2022-12-18T16:33:10;7.20;99.90
63289;DHT22;49412;48.162;-1.978;2022-12-18T16:35:36;7.20;99.90
63289;DHT22;49412;48.162;-1.978;2022-12-18T16:38:02;7.20;99.90
63289;DHT22;49412;48.162;-1.978;2022-12-18T16:40:27;7.30;99.90
63289;DHT22;49412;48.162;-1.978;2022-12-18T16:42:56;7.30;99.90
63289;DHT22;49412;48.162;-1.978;2022-12-18T16:45:21;7.40;99.90
63289;DHT22;49412;48.162;-1.978;2022-12-18T16:47:47;7.40;99.90
63289;DHT22;49412;48.162;-1.978;2022-12-18T16:50:15;7.40;99.90
63289;DHT22;49412;48.162;-1.978;2022-12-18T16:52:40;7.40;99.90
63289;DHT22;49412;48.162;-1.978;2022-12-18T16:55:06;7.40;99.90
63289;DHT22;49412;48.162;-1.978;2022-12-18T16:57:32;7.50;99.90
63289;DHT22;49412;48.162;-1.978;2022-12-18T16:59:57;7.50;99.90
63289;DHT22;49412;48.162;-1.978;2022-12-18T17:02:24;7.50;99.90
63289;DHT22;49412;48.162;-1.978;2022-12-18T17:04:52;7.50;99.90
63289;DHT22;49412;48.162;-1.978;2022-12-18T17:07:18;7.50;99.90
63289;DHT22;49412;48.162;-1.978;2022-12-18T17:09:43;7.60;99.90
63289;DHT22;49412;48.162;-1.978;2022-12-18T17:12:09;7.60;99.90
63289;DHT22;49412;48.162;-1.978;2022-12-18T17:14:35;7.60;99.90
63289;DHT22;49412;48.162;-1.978;2022-12-18T17:17:00;7.70;99.90
63289;DHT22;49412;48.162;-1.978;2022-12-18T17:19:26;7.70;99.90
63289;DHT22;49412;48.162;-1.978;2022-12-18T17:21:52;7.70;99.90
63289;DHT22;49412;48.162;-1.978;2022-12-18T17:24:18;7.80;99.90
63289;DHT22;49412;48.162;-1.978;2022-12-18T17:26:45;7.80;99.90
63289;DHT22;49412;48.162;-1.978;2022-12-18T17:29:14;7.80;99.90
63289;DHT22;49412;48.162;-1.978;2022-12-18T17:31:40;7.80;99.90
63289;DHT22;49412;48.162;-1.978;2022-12-18T17:34:06;7.90;99.90
63289;DHT22;49412;48.162;-1.978;2022-12-18T17:36:32;7.90;99.90
63289;DHT22;49412;48.162;-1.978;2022-12-18T17:38:59;8.00;99.90